sensor_id;sensor_type;location;lat;lon;timestamp;P1;durP1;ratioP1;P2;durP2;ratioP2
13083;SDS011;6608;48.790;9.198;2023-06-04T00:00:05;186.10;;;69.37;;
13083;SDS011;6608;48.790;9.198;2023-06-04T00:02:32;190.67;;;70.73;;
13083;SDS011;6608;48.790;9.198;2023-06-04T00:04:59;187.37;;;69.13;;
13083;SDS011;6608;48.790;9.198;2023-06-04T00:07:26;188.73;;;69.80;;
13083;SDS011;6608;48.790;9.198;2023-06-04T00:09:52;187.10;;;69.50;;
13083;SDS011;6608;48.790;9.198;2023-06-04T00:12:18;184.70;;;69.77;;
13083;SDS011;6608;48.790;9.198;2023-06-04T00:14:45;190.07;;;71.40;;
13083;SDS011;6608;48.790;9.198;2023-06-04T00:17:11;186.17;;;69.83;;
13083;SDS011;6608;48.790;9.198;2023-06-04T00:19:38;192.07;;;70.63;;
13083;SDS011;6608;48.790;9.198;2023-06-04T00:22:06;188.80;;;69.43;;
13083;SDS011;6608;48.790;9.198;2023-06-04T00:24:32;186.43;;;69.43;;
13083;SDS011;6608;48.790;9.198;2023-06-04T00:26:59;185.37;;;68.03;;
13083;SDS011;6608;48.790;9.198;2023-06-04T00:29:25;183.33;;;68.27;;
13083;SDS011;6608;48.790;9.198;2023-06-04T00:31:51;184.07;;;68.70;;
13083;SDS011;6608;48.790;9.198;2023-06-04T00:34:18;182.20;;;67.60;;
13083;SDS011;6608;48.790;9.198;2023-06-04T00:36:44;187.50;;;68.37;;
13083;SDS011;6608;48.790;9.198;2023-06-04T00:39:12;184.93;;;68.60;;
13083;SDS011;6608;48.790;9.198;2023-06-04T00:41:38;185.83;;;68.13;;
13083;SDS011;6608;48.790;9.198;2023-06-04T00:44:05;184.87;;;68.47;;
13083;SDS011;6608;48.790;9.198;2023-06-04T00:46:32;181.23;;;67.47;;
13083;SDS011;6608;48.790;9.198;2023-06-04T00:48:58;185.27;;;68.17;;
13083;SDS011;6608;48.790;9.198;2023-06-04T00:51:25;181.17;;;67.23;;
13083;SDS011;6608;48.790;9.198;2023-06-04T00:53:51;189.80;;;67.53;;
13083;SDS011;6608;48.790;9.198;2023-06-04T00:56:19;184.63;;;67.63;;
13083;SDS011;6608;48.790;9.198;2023-06-04T00:58:46;182.47;;;67.37;;
13083;SDS011;6608;48.790;9.198;2023-06-04T01:01:15;182.23;;;66.43;;
13083;SDS011;6608;48.790;9.198;2023-06-04T01:03:42;185.87;;;68.07;;
13083;SDS011;6608;48.790;9.198;2023-06-04T01:06:13;178.10;;;66.33;;
13083;SDS011;6608;48.790;9.198;2023-06-04T01:08:48;178.93;;;66.43;;
13083;SDS011;6608;48.790;9.198;2023-06-04T01:11:16;182.20;;;66.63;;
13083;SDS011;6608;48.790;9.198;2023-06-04T01:13:43;180.40;;;67.03;;
13083;SDS011;6608;48.790;9.198;2023-06-04T01:16:10;184.90;;;67.17;;
13083;SDS011;6608;48.790;9.198;2023-06-04T01:18:37;179.87;;;67.17;;
13083;SDS011;6608;48.790;9.198;2023-06-04T01:21:05;183.57;;;67.87;;
13083;SDS011;6608;48.790;9.198;2023-06-04T01:23:34;180.87;;;66.13;;
13083;SDS011;6608;48.790;9.198;2023-06-04T01:26:04;178.77;;;66.40;;
13083;SDS011;6608;48.790;9.198;2023-06-04T01:28:31;177.80;;;66.30;;
13083;SDS011;6608;48.790;9.198;2023-06-04T01:30:59;177.43;;;66.10;;
13083;SDS011;6608;48.790;9.198;2023-06-04T01:33:26;181.43;;;66.43;;
13083;SDS011;6608;48.790;9.198;2023-06-04T01:35:53;180.00;;;66.17;;
13083;SDS011;6608;48.790;9.198;2023-06-04T01:38:19;178.90;;;66.43;;
13083;SDS011;6608;48.790;9.198;2023-06-04T01:40:46;180.13;;;66.53;;
13083;SDS011;6608;48.790;9.198;2023-06-04T01:43:12;182.40;;;67.03;;
13083;SDS011;6608;48.790;9.198;2023-06-04T01:45:39;180.23;;;66.67;;
13083;SDS011;6608;48.790;9.198;2023-06-04T01:48:07;179.27;;;66.50;;
13083;SDS011;6608;48.790;9.198;2023-06-04T01:50:34;180.70;;;66.20;;
13083;SDS011;6608;48.790;9.198;2023-06-04T01:53:00;180.43;;;65.77;;
13083;SDS011;6608;48.790;9.198;2023-06-04T01:55:26;179.87;;;66.57;;
13083;SDS011;6608;48.790;9.198;2023-06-04T01:57:54;176.67;;;65.50;;
13083;SDS011;6608;48.790;9.198;2023-06-04T02:00:21;181.07;;;66.40;;
13083;SDS011;6608;48.790;9.198;2023-06-04T02:02:47;179.43;;;65.27;;
13083;SDS011;6608;48.790;9.198;2023-06-04T02:05:15;179.53;;;66.73;;
13083;SDS011;6608;48.790;9.198;2023-06-04T02:07:42;178.77;;;65.90;;
13083;SDS011;6608;48.790;9.198;2023-06-04T02:10:10;179.93;;;66.70;;
13083;SDS011;6608;48.790;9.198;2023-06-04T02:12:37;181.90;;;66.07;;
13083;SDS011;6608;48.790;9.198;2023-06-04T02:15:04;175.93;;;65.30;;
13083;SDS011;6608;48.790;9.198;2023-06-04T02:17:31;176.77;;;64.77;;
13083;SDS011;6608;48.790;9.198;2023-06-04T02:19:58;176.27;;;64.90;;
13083;SDS011;6608;48.790;9.198;2023-06-04T02:22:27;176.80;;;65.57;;
13083;SDS011;6608;48.790;9.198;2023-06-04T02:24:53;175.57;;;65.00;;
13083;SDS011;6608;48.790;9.198;2023-06-04T02:27:19;175.73;;;64.80;;
13083;SDS011;6608;48.790;9.198;2023-06-04T02:29:46;177.90;;;65.07;;
13083;SDS011;6608;48.790;9.198;2023-06-04T02:32:12;174.63;;;65.17;;
13083;SDS011;6608;48.790;9.198;2023-06-04T02:34:39;174.47;;;64.40;;
13083;SDS011;6608;48.790;9.198;2023-06-04T02:37:05;177.10;;;64.60;;
13083;SDS011;6608;48.790;9.198;2023-06-04T02:39:33;173.87;;;63.63;;
13083;SDS011;6608;48.790;9.198;2023-06-04T02:42:00;177.13;;;64.07;;
13083;SDS011;6608;48.790;9.198;2023-06-04T02:44:26;173.70;;;64.07;;
13083;SDS011;6608;48.790;9.198;2023-06-04T02:46:54;173.60;;;63.93;;
13083;SDS011;6608;48.790;9.198;2023-06-04T02:49:21;174.40;;;64.37;;
13083;SDS011;6608;48.790;9.198;2023-06-04T02:51:47;174.13;;;64.07;;
13083;SDS011;6608;48.790;9.198;2023-06-04T02:54:13;176.03;;;64.47;;
13083;SDS011;6608;48.790;9.198;2023-06-04T02:56:41;174.80;;;64.07;;
13083;SDS011;6608;48.790;9.198;2023-06-04T02:59:08;175.97;;;64.10;;
13083;SDS011;6608;48.790;9.198;2023-06-04T03:01:34;173.83;;;63.93;;
13083;SDS011;6608;48.790;9.198;2023-06-04T03:04:01;175.97;;;64.40;;
13083;SDS011;6608;48.790;9.198;2023-06-04T03:06:29;175.63;;;64.73;;
13083;SDS011;6608;48.790;9.198;2023-06-04T03:08:57;178.47;;;64.13;;
13083;SDS011;6608;48.790;9.198;2023-06-04T03:11:23;170.87;;;62.67;;
13083;SDS011;6608;48.790;9.198;2023-06-04T03:13:51;176.50;;;63.90;;
13083;SDS011;6608;48.790;9.198;2023-06-04T03:16:18;171.10;;;62.97;;
13083;SDS011;6608;48.790;9.198;2023-06-04T03:18:45;174.73;;;62.70;;
13083;SDS011;6608;48.790;9.198;2023-06-04T03:21:12;173.37;;;63.13;;
13083;SDS011;6608;48.790;9.198;2023-06-04T03:23:38;171.97;;;62.73;;
13083;SDS011;6608;48.790;9.198;2023-06-04T03:26:05;172.23;;;62.50;;
13083;SDS011;6608;48.790;9.198;2023-06-04T03:28:31;171.93;;;62.47;;
13083;SDS011;6608;48.790;9.198;2023-06-04T03:30:59;173.40;;;63.00;;
13083;SDS011;6608;48.790;9.198;2023-06-04T03:33:27;176.27;;;64.10;;
13083;SDS011;6608;48.790;9.198;2023-06-04T03:35:53;172.90;;;62.77;;
13083;SDS011;6608;48.790;9.198;2023-06-04T03:38:22;177.80;;;63.60;;
13083;SDS011;6608;48.790;9.198;2023-06-04T03:40:49;172.67;;;63.77;;
13083;SDS011;6608;48.790;9.198;2023-06-04T03:43:15;171.80;;;62.90;;
13083;SDS011;6608;48.790;9.198;2023-06-04T03:45:41;175.47;;;64.10;;
13083;SDS011;6608;48.790;9.198;2023-06-04T03:48:09;172.23;;;62.83;;
13083;SDS011;6608;48.790;9.198;2023-06-04T03:50:36;171.87;;;63.37;;
13083;SDS011;6608;48.790;9.198;2023-06-04T03:53:02;174.30;;;63.27;;
13083;SDS011;6608;48.790;9.198;2023-06-04T03:55:30;174.13;;;63.30;;
13083;SDS011;6608;48.790;9.198;2023-06-04T03:57:57;173.23;;;63.27;;
13083;SDS011;6608;48.790;9.198;2023-06-04T04:00:23;172.10;;;63.03;;
13083;SDS011;6608;48.790;9.198;2023-06-04T04:02:49;176.83;;;64.17;;
13083;SDS011;6608;48.790;9.198;2023-06-04T04:05:17;172.80;;;62.77;;
13083;SDS011;6608;48.790;9.198;2023-06-04T04:07:44;176.53;;;63.77;;
13083;SDS011;6608;48.790;9.198;2023-06-04T04:10:12;177.03;;;63.20;;
13083;SDS011;6608;48.790;9.198;2023-06-04T04:12:39;175.40;;;63.40;;
13083;SDS011;6608;48.790;9.198;2023-06-04T04:15:05;173.00;;;63.57;;
13083;SDS011;6608;48.790;9.198;2023-06-04T04:17:33;174.17;;;64.07;;
13083;SDS011;6608;48.790;9.198;2023-06-04T04:19:59;172.33;;;63.57;;
13083;SDS011;6608;48.790;9.198;2023-06-04T04:22:27;172.40;;;63.93;;
13083;SDS011;6608;48.790;9.198;2023-06-04T04:24:54;174.43;;;63.27;;
13083;SDS011;6608;48.790;9.198;2023-06-04T04:27:20;174.17;;;64.13;;
13083;SDS011;6608;48.790;9.198;2023-06-04T04:29:47;176.13;;;64.20;;
13083;SDS011;6608;48.790;9.198;2023-06-04T04:32:14;174.73;;;63.70;;
13083;SDS011;6608;48.790;9.198;2023-06-04T04:34:50;172.90;;;63.27;;
13083;SDS011;6608;48.790;9.198;2023-06-04T04:37:17;171.53;;;63.13;;
13083;SDS011;6608;48.790;9.198;2023-06-04T04:39:47;177.90;;;64.27;;
13083;SDS011;6608;48.790;9.198;2023-06-04T04:42:16;172.37;;;62.53;;
13083;SDS011;6608;48.790;9.198;2023-06-04T04:44:43;176.60;;;65.20;;
13083;SDS011;6608;48.790;9.198;2023-06-04T04:47:12;171.43;;;61.87;;
13083;SDS011;6608;48.790;9.198;2023-06-04T04:49:38;170.60;;;63.03;;
13083;SDS011;6608;48.790;9.198;2023-06-04T04:52:05;169.73;;;62.67;;
13083;SDS011;6608;48.790;9.198;2023-06-04T04:54:31;170.03;;;62.00;;
13083;SDS011;6608;48.790;9.198;2023-06-04T04:56:59;173.73;;;63.40;;
13083;SDS011;6608;48.790;9.198;2023-06-04T04:59:25;172.67;;;63.23;;
13083;SDS011;6608;48.790;9.198;2023-06-04T05:01:52;173.30;;;63.80;;
13083;SDS011;6608;48.790;9.198;2023-06-04T05:04:18;175.87;;;63.17;;
13083;SDS011;6608;48.790;9.198;2023-06-04T05:06:44;175.60;;;63.13;;
13083;SDS011;6608;48.790;9.198;2023-06-04T05:09:11;174.33;;;63.23;;
13083;SDS011;6608;48.790;9.198;2023-06-04T05:11:37;175.23;;;63.70;;
13083;SDS011;6608;48.790;9.198;2023-06-04T05:14:05;175.70;;;63.40;;
13083;SDS011;6608;48.790;9.198;2023-06-04T05:16:32;175.07;;;64.03;;
13083;SDS011;6608;48.790;9.198;2023-06-04T05:19:00;175.10;;;64.13;;
13083;SDS011;6608;48.790;9.198;2023-06-04T05:21:26;178.67;;;64.30;;
13083;SDS011;6608;48.790;9.198;2023-06-04T05:23:53;175.90;;;63.93;;
13083;SDS011;6608;48.790;9.198;2023-06-04T05:26:20;176.37;;;63.57;;
13083;SDS011;6608;48.790;9.198;2023-06-04T05:28:48;177.33;;;64.20;;
13083;SDS011;6608;48.790;9.198;2023-06-04T05:31:16;175.50;;;63.87;;
13083;SDS011;6608;48.790;9.198;2023-06-04T05:33:43;177.03;;;63.70;;
13083;SDS011;6608;48.790;9.198;2023-06-04T05:36:10;174.47;;;63.43;;
13083;SDS011;6608;48.790;9.198;2023-06-04T05:38:37;175.97;;;63.90;;
13083;SDS011;6608;48.790;9.198;2023-06-04T05:41:03;176.40;;;63.77;;
13083;SDS011;6608;48.790;9.198;2023-06-04T05:43:30;181.00;;;64.37;;
13083;SDS011;6608;48.790;9.198;2023-06-04T05:45:56;182.57;;;65.30;;
13083;SDS011;6608;48.790;9.198;2023-06-04T05:48:24;181.30;;;66.50;;
13083;SDS011;6608;48.790;9.198;2023-06-04T05:50:51;182.70;;;65.47;;
13083;SDS011;6608;48.790;9.198;2023-06-04T05:53:17;183.17;;;66.40;;
13083;SDS011;6608;48.790;9.198;2023-06-04T05:55:44;186.43;;;66.63;;
13083;SDS011;6608;48.790;9.198;2023-06-04T05:58:10;183.87;;;66.23;;
13083;SDS011;6608;48.790;9.198;2023-06-04T06:00:37;184.63;;;66.77;;
13083;SDS011;6608;48.790;9.198;2023-06-04T06:03:03;182.83;;;65.77;;
13083;SDS011;6608;48.790;9.198;2023-06-04T06:05:32;182.33;;;65.03;;
13083;SDS011;6608;48.790;9.198;2023-06-04T06:07:59;182.00;;;65.50;;
13083;SDS011;6608;48.790;9.198;2023-06-04T06:10:25;181.57;;;65.33;;
13083;SDS011;6608;48.790;9.198;2023-06-04T06:12:51;181.83;;;65.17;;
13083;SDS011;6608;48.790;9.198;2023-06-04T06:15:18;183.67;;;65.27;;
13083;SDS011;6608;48.790;9.198;2023-06-04T06:17:44;183.67;;;66.23;;
13083;SDS011;6608;48.790;9.198;2023-06-04T06:20:11;183.40;;;66.73;;
13083;SDS011;6608;48.790;9.198;2023-06-04T06:22:43;182.83;;;66.60;;
13083;SDS011;6608;48.790;9.198;2023-06-04T06:25:10;184.10;;;66.63;;
13083;SDS011;6608;48.790;9.198;2023-06-04T06:27:38;183.20;;;66.67;;
13083;SDS011;6608;48.790;9.198;2023-06-04T06:30:05;184.97;;;66.90;;
13083;SDS011;6608;48.790;9.198;2023-06-04T06:32:31;185.20;;;67.27;;
13083;SDS011;6608;48.790;9.198;2023-06-04T06:34:57;186.27;;;66.87;;
13083;SDS011;6608;48.790;9.198;2023-06-04T06:37:24;186.43;;;67.43;;
13083;SDS011;6608;48.790;9.198;2023-06-04T06:39:52;187.17;;;67.03;;
13083;SDS011;6608;48.790;9.198;2023-06-04T06:42:18;185.57;;;67.90;;
13083;SDS011;6608;48.790;9.198;2023-06-04T06:44:45;188.60;;;66.40;;
13083;SDS011;6608;48.790;9.198;2023-06-04T06:47:11;182.97;;;66.10;;
13083;SDS011;6608;48.790;9.198;2023-06-04T06:49:38;184.70;;;66.00;;
13083;SDS011;6608;48.790;9.198;2023-06-04T06:52:05;184.60;;;66.00;;
13083;SDS011;6608;48.790;9.198;2023-06-04T06:54:31;183.97;;;66.37;;
13083;SDS011;6608;48.790;9.198;2023-06-04T06:56:59;186.70;;;67.83;;
13083;SDS011;6608;48.790;9.198;2023-06-04T06:59:25;183.40;;;66.27;;
13083;SDS011;6608;48.790;9.198;2023-06-04T07:01:52;185.73;;;66.17;;
13083;SDS011;6608;48.790;9.198;2023-06-04T07:04:18;183.03;;;66.37;;
13083;SDS011;6608;48.790;9.198;2023-06-04T07:06:45;185.03;;;67.03;;
13083;SDS011;6608;48.790;9.198;2023-06-04T07:09:12;185.43;;;67.07;;
13083;SDS011;6608;48.790;9.198;2023-06-04T07:11:39;184.53;;;67.07;;
13083;SDS011;6608;48.790;9.198;2023-06-04T07:14:07;185.80;;;67.13;;
13083;SDS011;6608;48.790;9.198;2023-06-04T07:16:33;186.20;;;67.43;;
13083;SDS011;6608;48.790;9.198;2023-06-04T07:19:00;190.60;;;68.07;;
13083;SDS011;6608;48.790;9.198;2023-06-04T07:21:27;186.97;;;67.57;;
13083;SDS011;6608;48.790;9.198;2023-06-04T07:23:53;187.10;;;67.87;;
13083;SDS011;6608;48.790;9.198;2023-06-04T07:26:19;190.47;;;68.30;;
13083;SDS011;6608;48.790;9.198;2023-06-04T07:28:46;194.23;;;70.20;;
13083;SDS011;6608;48.790;9.198;2023-06-04T07:31:15;192.27;;;70.57;;
13083;SDS011;6608;48.790;9.198;2023-06-04T07:33:42;191.70;;;70.73;;
13083;SDS011;6608;48.790;9.198;2023-06-04T07:36:09;202.10;;;69.87;;
13083;SDS011;6608;48.790;9.198;2023-06-04T07:38:35;191.63;;;69.70;;
13083;SDS011;6608;48.790;9.198;2023-06-04T07:41:02;190.07;;;69.30;;
13083;SDS011;6608;48.790;9.198;2023-06-04T07:43:28;192.47;;;69.63;;
13083;SDS011;6608;48.790;9.198;2023-06-04T07:45:54;193.60;;;69.77;;
13083;SDS011;6608;48.790;9.198;2023-06-04T07:48:22;189.57;;;69.00;;
13083;SDS011;6608;48.790;9.198;2023-06-04T07:50:55;189.20;;;69.10;;
13083;SDS011;6608;48.790;9.198;2023-06-04T07:53:21;195.60;;;70.00;;
13083;SDS011;6608;48.790;9.198;2023-06-04T07:55:48;192.33;;;70.90;;
13083;SDS011;6608;48.790;9.198;2023-06-04T07:58:14;193.37;;;70.07;;
13083;SDS011;6608;48.790;9.198;2023-06-04T08:00:40;193.10;;;70.37;;
13083;SDS011;6608;48.790;9.198;2023-06-04T08:03:07;195.50;;;70.37;;
13083;SDS011;6608;48.790;9.198;2023-06-04T08:05:35;193.87;;;70.77;;
13083;SDS011;6608;48.790;9.198;2023-06-04T08:08:01;192.33;;;70.47;;
13083;SDS011;6608;48.790;9.198;2023-06-04T08:10:28;193.63;;;71.20;;
13083;SDS011;6608;48.790;9.198;2023-06-04T08:12:55;195.60;;;71.07;;
13083;SDS011;6608;48.790;9.198;2023-06-04T08:15:22;193.20;;;70.00;;
13083;SDS011;6608;48.790;9.198;2023-06-04T08:17:48;192.67;;;71.60;;
13083;SDS011;6608;48.790;9.198;2023-06-04T08:20:15;194.47;;;70.23;;
13083;SDS011;6608;48.790;9.198;2023-06-04T08:22:43;195.03;;;70.70;;
13083;SDS011;6608;48.790;9.198;2023-06-04T08:25:09;196.23;;;71.37;;
13083;SDS011;6608;48.790;9.198;2023-06-04T08:27:36;195.80;;;71.07;;
13083;SDS011;6608;48.790;9.198;2023-06-04T08:30:03;200.87;;;71.17;;
13083;SDS011;6608;48.790;9.198;2023-06-04T08:32:29;204.17;;;72.90;;
13083;SDS011;6608;48.790;9.198;2023-06-04T08:34:55;202.40;;;72.37;;
13083;SDS011;6608;48.790;9.198;2023-06-04T08:37:22;202.63;;;72.20;;
13083;SDS011;6608;48.790;9.198;2023-06-04T08:39:51;197.93;;;71.87;;
13083;SDS011;6608;48.790;9.198;2023-06-04T08:42:18;200.77;;;71.20;;
13083;SDS011;6608;48.790;9.198;2023-06-04T08:44:47;204.10;;;72.13;;
13083;SDS011;6608;48.790;9.198;2023-06-04T08:47:16;213.80;;;73.23;;
13083;SDS011;6608;48.790;9.198;2023-06-04T08:49:44;198.23;;;71.07;;
13083;SDS011;6608;48.790;9.198;2023-06-04T08:52:13;208.53;;;73.37;;
13083;SDS011;6608;48.790;9.198;2023-06-04T08:54:39;199.40;;;71.40;;
13083;SDS011;6608;48.790;9.198;2023-06-04T08:57:07;193.67;;;71.17;;
13083;SDS011;6608;48.790;9.198;2023-06-04T08:59:34;195.87;;;71.40;;
13083;SDS011;6608;48.790;9.198;2023-06-04T09:02:01;194.90;;;71.83;;
13083;SDS011;6608;48.790;9.198;2023-06-04T09:04:28;198.03;;;72.03;;
13083;SDS011;6608;48.790;9.198;2023-06-04T09:06:55;198.93;;;72.40;;
13083;SDS011;6608;48.790;9.198;2023-06-04T09:09:25;211.83;;;74.30;;
13083;SDS011;6608;48.790;9.198;2023-06-04T09:11:54;204.40;;;73.07;;
13083;SDS011;6608;48.790;9.198;2023-06-04T09:14:23;205.67;;;73.97;;
13083;SDS011;6608;48.790;9.198;2023-06-04T09:16:50;209.93;;;74.00;;
13083;SDS011;6608;48.790;9.198;2023-06-04T09:19:17;203.30;;;73.57;;
13083;SDS011;6608;48.790;9.198;2023-06-04T09:21:48;212.40;;;74.40;;
13083;SDS011;6608;48.790;9.198;2023-06-04T09:24:14;201.53;;;73.43;;
13083;SDS011;6608;48.790;9.198;2023-06-04T09:26:41;196.33;;;73.13;;
13083;SDS011;6608;48.790;9.198;2023-06-04T09:29:07;219.37;;;76.93;;
13083;SDS011;6608;48.790;9.198;2023-06-04T09:31:35;226.23;;;79.93;;
13083;SDS011;6608;48.790;9.198;2023-06-04T09:34:02;226.23;;;80.20;;
13083;SDS011;6608;48.790;9.198;2023-06-04T09:36:29;215.60;;;78.47;;
13083;SDS011;6608;48.790;9.198;2023-06-04T09:41:59;218.93;;;77.80;;
13083;SDS011;6608;48.790;9.198;2023-06-04T09:44:26;220.30;;;77.90;;
13083;SDS011;6608;48.790;9.198;2023-06-04T09:46:54;206.00;;;75.37;;
13083;SDS011;6608;48.790;9.198;2023-06-04T09:49:21;203.83;;;76.27;;
13083;SDS011;6608;48.790;9.198;2023-06-04T09:51:47;205.27;;;77.03;;
13083;SDS011;6608;48.790;9.198;2023-06-04T09:54:14;203.07;;;78.43;;
13083;SDS011;6608;48.790;9.198;2023-06-04T09:56:41;203.73;;;78.47;;
13083;SDS011;6608;48.790;9.198;2023-06-04T09:59:08;205.13;;;78.20;;
13083;SDS011;6608;48.790;9.198;2023-06-04T10:01:35;203.03;;;78.10;;
13083;SDS011;6608;48.790;9.198;2023-06-04T10:04:06;202.00;;;77.93;;
13083;SDS011;6608;48.790;9.198;2023-06-04T10:06:34;209.10;;;79.33;;
13083;SDS011;6608;48.790;9.198;2023-06-04T10:09:03;208.60;;;79.23;;
13083;SDS011;6608;48.790;9.198;2023-06-04T10:11:31;210.47;;;80.20;;
13083;SDS011;6608;48.790;9.198;2023-06-04T10:14:00;210.67;;;81.97;;
13083;SDS011;6608;48.790;9.198;2023-06-04T10:16:28;207.47;;;80.83;;
13083;SDS011;6608;48.790;9.198;2023-06-04T10:18:55;216.20;;;83.07;;
13083;SDS011;6608;48.790;9.198;2023-06-04T10:21:24;212.70;;;83.50;;
13083;SDS011;6608;48.790;9.198;2023-06-04T10:23:52;218.63;;;85.60;;
13083;SDS011;6608;48.790;9.198;2023-06-04T10:26:18;220.67;;;86.33;;
13083;SDS011;6608;48.790;9.198;2023-06-04T10:28:45;211.30;;;84.00;;
13083;SDS011;6608;48.790;9.198;2023-06-04T10:31:11;217.03;;;85.83;;
13083;SDS011;6608;48.790;9.198;2023-06-04T10:33:38;217.67;;;86.17;;
13083;SDS011;6608;48.790;9.198;2023-06-04T10:36:15;220.77;;;86.23;;
13083;SDS011;6608;48.790;9.198;2023-06-04T10:38:45;207.37;;;80.03;;
13083;SDS011;6608;48.790;9.198;2023-06-04T10:41:13;199.87;;;79.47;;
13083;SDS011;6608;48.790;9.198;2023-06-04T10:43:39;198.87;;;79.90;;
13083;SDS011;6608;48.790;9.198;2023-06-04T10:46:11;199.93;;;78.70;;
13083;SDS011;6608;48.790;9.198;2023-06-04T10:48:44;199.00;;;79.50;;
13083;SDS011;6608;48.790;9.198;2023-06-04T10:51:11;202.87;;;79.83;;
13083;SDS011;6608;48.790;9.198;2023-06-04T10:53:37;203.23;;;79.70;;
13083;SDS011;6608;48.790;9.198;2023-06-04T10:56:05;209.10;;;79.77;;
13083;SDS011;6608;48.790;9.198;2023-06-04T10:58:31;209.37;;;81.03;;
13083;SDS011;6608;48.790;9.198;2023-06-04T11:00:58;217.97;;;84.00;;
13083;SDS011;6608;48.790;9.198;2023-06-04T11:03:34;218.30;;;84.47;;
13083;SDS011;6608;48.790;9.198;2023-06-04T11:06:01;232.53;;;86.13;;
13083;SDS011;6608;48.790;9.198;2023-06-04T11:08:28;199.30;;;77.17;;
13083;SDS011;6608;48.790;9.198;2023-06-04T11:10:54;197.60;;;76.23;;
13083;SDS011;6608;48.790;9.198;2023-06-04T11:13:24;197.07;;;76.70;;
13083;SDS011;6608;48.790;9.198;2023-06-04T11:15:50;197.27;;;76.83;;
13083;SDS011;6608;48.790;9.198;2023-06-04T11:18:17;197.77;;;77.70;;
13083;SDS011;6608;48.790;9.198;2023-06-04T11:20:44;198.43;;;77.27;;
13083;SDS011;6608;48.790;9.198;2023-06-04T11:23:11;194.77;;;77.63;;
13083;SDS011;6608;48.790;9.198;2023-06-04T11:25:38;198.40;;;77.90;;
13083;SDS011;6608;48.790;9.198;2023-06-04T11:28:04;195.57;;;77.80;;
13083;SDS011;6608;48.790;9.198;2023-06-04T11:30:32;193.77;;;77.27;;
13083;SDS011;6608;48.790;9.198;2023-06-04T11:32:59;192.27;;;76.97;;
13083;SDS011;6608;48.790;9.198;2023-06-04T11:35:26;193.77;;;77.30;;
13083;SDS011;6608;48.790;9.198;2023-06-04T11:37:53;193.03;;;76.47;;
13083;SDS011;6608;48.790;9.198;2023-06-04T11:40:19;194.30;;;76.87;;
13083;SDS011;6608;48.790;9.198;2023-06-04T11:42:46;195.70;;;77.37;;
13083;SDS011;6608;48.790;9.198;2023-06-04T11:45:13;196.33;;;77.70;;
13083;SDS011;6608;48.790;9.198;2023-06-04T11:47:41;193.20;;;77.33;;
13083;SDS011;6608;48.790;9.198;2023-06-04T11:50:08;196.57;;;77.77;;
13083;SDS011;6608;48.790;9.198;2023-06-04T11:52:34;196.60;;;77.30;;
13083;SDS011;6608;48.790;9.198;2023-06-04T11:55:00;199.23;;;78.70;;
13083;SDS011;6608;48.790;9.198;2023-06-04T11:57:27;194.63;;;77.47;;
13083;SDS011;6608;48.790;9.198;2023-06-04T11:59:54;201.10;;;78.73;;
13083;SDS011;6608;48.790;9.198;2023-06-04T12:02:20;197.33;;;77.33;;
13083;SDS011;6608;48.790;9.198;2023-06-04T12:04:48;209.23;;;80.57;;
13083;SDS011;6608;48.790;9.198;2023-06-04T12:07:19;196.87;;;77.13;;
13083;SDS011;6608;48.790;9.198;2023-06-04T12:09:46;197.17;;;76.93;;
13083;SDS011;6608;48.790;9.198;2023-06-04T12:12:12;201.57;;;78.60;;
13083;SDS011;6608;48.790;9.198;2023-06-04T12:14:38;199.87;;;78.63;;
13083;SDS011;6608;48.790;9.198;2023-06-04T12:17:05;199.50;;;78.17;;
13083;SDS011;6608;48.790;9.198;2023-06-04T12:19:32;198.63;;;77.60;;
13083;SDS011;6608;48.790;9.198;2023-06-04T12:22:00;196.60;;;77.17;;
13083;SDS011;6608;48.790;9.198;2023-06-04T12:24:27;202.20;;;79.23;;
13083;SDS011;6608;48.790;9.198;2023-06-04T12:27:00;199.73;;;78.53;;
13083;SDS011;6608;48.790;9.198;2023-06-04T12:29:27;200.57;;;79.00;;
13083;SDS011;6608;48.790;9.198;2023-06-04T12:32:01;201.87;;;79.37;;
13083;SDS011;6608;48.790;9.198;2023-06-04T12:34:27;205.00;;;79.30;;
13083;SDS011;6608;48.790;9.198;2023-06-04T12:36:54;202.73;;;78.60;;
13083;SDS011;6608;48.790;9.198;2023-06-04T12:39:21;203.73;;;78.87;;
13083;SDS011;6608;48.790;9.198;2023-06-04T12:41:48;202.80;;;78.77;;
13083;SDS011;6608;48.790;9.198;2023-06-04T12:44:14;211.20;;;79.60;;
13083;SDS011;6608;48.790;9.198;2023-06-04T12:46:41;207.80;;;79.80;;
13083;SDS011;6608;48.790;9.198;2023-06-04T12:49:07;210.63;;;80.33;;
13083;SDS011;6608;48.790;9.198;2023-06-04T12:51:33;234.63;;;85.43;;
13083;SDS011;6608;48.790;9.198;2023-06-04T12:54:01;222.63;;;81.60;;
13083;SDS011;6608;48.790;9.198;2023-06-04T12:56:29;227.00;;;81.23;;
13083;SDS011;6608;48.790;9.198;2023-06-04T12:58:55;198.13;;;76.60;;
13083;SDS011;6608;48.790;9.198;2023-06-04T13:01:22;205.97;;;77.50;;
13083;SDS011;6608;48.790;9.198;2023-06-04T13:03:48;198.97;;;76.60;;
13083;SDS011;6608;48.790;9.198;2023-06-04T13:06:14;199.53;;;76.30;;
13083;SDS011;6608;48.790;9.198;2023-06-04T13:08:41;199.07;;;76.20;;
13083;SDS011;6608;48.790;9.198;2023-06-04T13:11:08;201.57;;;76.47;;
13083;SDS011;6608;48.790;9.198;2023-06-04T13:13:36;195.10;;;76.20;;
13083;SDS011;6608;48.790;9.198;2023-06-04T13:16:03;191.90;;;75.10;;
13083;SDS011;6608;48.790;9.198;2023-06-04T13:18:30;195.97;;;75.30;;
13083;SDS011;6608;48.790;9.198;2023-06-04T13:20:56;192.10;;;75.07;;
13083;SDS011;6608;48.790;9.198;2023-06-04T13:23:23;194.57;;;75.83;;
13083;SDS011;6608;48.790;9.198;2023-06-04T13:25:49;194.53;;;75.13;;
13083;SDS011;6608;48.790;9.198;2023-06-04T13:28:15;195.00;;;77.10;;
13083;SDS011;6608;48.790;9.198;2023-06-04T13:30:43;198.97;;;75.30;;
13083;SDS011;6608;48.790;9.198;2023-06-04T13:33:10;194.97;;;75.37;;
13083;SDS011;6608;48.790;9.198;2023-06-04T13:35:36;191.50;;;75.47;;
13083;SDS011;6608;48.790;9.198;2023-06-04T13:38:03;193.03;;;75.93;;
13083;SDS011;6608;48.790;9.198;2023-06-04T13:40:30;194.37;;;76.60;;
13083;SDS011;6608;48.790;9.198;2023-06-04T13:42:57;194.83;;;75.63;;
13083;SDS011;6608;48.790;9.198;2023-06-04T13:45:23;203.83;;;75.50;;
13083;SDS011;6608;48.790;9.198;2023-06-04T13:47:51;194.43;;;75.17;;
13083;SDS011;6608;48.790;9.198;2023-06-04T13:50:17;200.40;;;75.87;;
13083;SDS011;6608;48.790;9.198;2023-06-04T13:52:44;197.70;;;74.33;;
13083;SDS011;6608;48.790;9.198;2023-06-04T13:55:11;198.00;;;74.87;;
13083;SDS011;6608;48.790;9.198;2023-06-04T13:57:38;201.23;;;75.03;;
13083;SDS011;6608;48.790;9.198;2023-06-04T14:00:05;199.80;;;76.17;;
13083;SDS011;6608;48.790;9.198;2023-06-04T14:02:31;200.10;;;75.50;;
13083;SDS011;6608;48.790;9.198;2023-06-04T14:04:59;195.97;;;75.07;;
13083;SDS011;6608;48.790;9.198;2023-06-04T14:07:26;199.17;;;74.47;;
13083;SDS011;6608;48.790;9.198;2023-06-04T14:09:52;202.13;;;75.97;;
13083;SDS011;6608;48.790;9.198;2023-06-04T14:12:19;204.03;;;75.63;;
13083;SDS011;6608;48.790;9.198;2023-06-04T14:14:46;199.53;;;75.87;;
13083;SDS011;6608;48.790;9.198;2023-06-04T14:17:12;193.33;;;74.30;;
13083;SDS011;6608;48.790;9.198;2023-06-04T14:19:39;194.37;;;74.13;;
13083;SDS011;6608;48.790;9.198;2023-06-04T14:22:06;194.43;;;74.17;;